createdAt,value
2022-12-15T00:02:19.204Z,19.53
2022-12-15T00:05:05.052Z,23.73
2022-12-15T00:07:50.666Z,20.53
2022-12-15T00:10:36.223Z,20.17
2022-12-15T00:13:21.636Z,21.20
2022-12-15T00:16:07.000Z,19.23
2022-12-15T00:18:52.401Z,21.90
2022-12-15T00:21:37.694Z,23.00
2022-12-15T00:24:23.226Z,18.97
2022-12-15T00:27:08.550Z,20.17
2022-12-15T00:29:54.042Z,20.97
2022-12-15T00:32:40.532Z,22.17
2022-12-15T00:35:29.315Z,21.07
2022-12-15T00:38:14.963Z,21.17
2022-12-15T00:40:41.575Z,20.33
2022-12-15T00:43:11.853Z,18.13
2022-12-15T00:45:57.141Z,19.73
2022-12-15T00:48:23.735Z,18.13
2022-12-15T00:50:53.124Z,19.77
2022-12-15T00:53:42.715Z,17.57
2022-12-15T00:56:28.591Z,19.93
2022-12-15T00:59:14.751Z,17.73
2022-12-15T01:02:01.356Z,17.33
2022-12-15T01:04:47.323Z,18.87
2022-12-15T01:07:32.882Z,18.90
2022-12-15T01:10:18.212Z,16.70
2022-12-15T01:13:04.437Z,18.60
2022-12-15T01:15:50.002Z,18.37
2022-12-15T01:18:36.115Z,19.37
2022-12-15T01:21:05.229Z,16.17
2022-12-15T01:23:33.164Z,17.77
2022-12-15T01:26:00.896Z,18.40
2022-12-15T01:28:27.608Z,18.43
2022-12-15T01:30:54.550Z,17.83
2022-12-15T01:33:22.280Z,16.73
2022-12-15T01:35:59.375Z,20.43
2022-12-15T01:38:27.530Z,18.20
2022-12-15T01:40:58.606Z,19.83
2022-12-15T01:43:29.718Z,16.77
2022-12-15T01:46:12.469Z,17.13
2022-12-15T01:48:44.636Z,19.30
2022-12-15T01:51:17.210Z,16.10
2022-12-15T01:54:00.163Z,18.90
2022-12-15T01:56:32.503Z,18.50
2022-12-15T01:59:07.332Z,18.23
2022-12-15T02:01:34.098Z,18.43
2022-12-15T02:04:02.167Z,18.43
2022-12-15T02:06:29.784Z,17.00
2022-12-15T02:08:58.879Z,17.53
2022-12-15T02:11:46.580Z,17.30
2022-12-15T02:14:35.298Z,18.77
2022-12-15T02:17:09.733Z,19.20
2022-12-15T02:19:54.606Z,18.13
2022-12-15T02:22:45.853Z,16.93
2022-12-15T02:25:44.804Z,17.27
2022-12-15T02:28:17.428Z,15.67
2022-12-15T02:31:12.948Z,18.80
2022-12-15T02:34:12.255Z,15.80
2022-12-15T02:36:42.769Z,16.27
2022-12-15T02:40:14.270Z,19.03
2022-12-15T02:42:46.704Z,16.50
2022-12-15T02:45:26.605Z,18.60
2022-12-15T02:47:56.232Z,15.93
2022-12-15T02:50:41.584Z,20.20
2022-12-15T02:53:17.309Z,19.37
2022-12-15T02:56:05.574Z,17.57
2022-12-15T02:58:57.223Z,17.87
2022-12-15T03:01:42.087Z,15.57
2022-12-15T03:04:10.647Z,14.80
2022-12-15T03:06:37.549Z,16.60
2022-12-15T03:09:04.557Z,19.47
2022-12-15T03:11:34.075Z,16.73
2022-12-15T03:14:03.342Z,17.53
2022-12-15T03:16:29.970Z,16.27
2022-12-15T03:18:58.606Z,14.43
2022-12-15T03:21:28.636Z,17.13
2022-12-15T03:23:56.244Z,16.33
2022-12-15T03:26:22.859Z,15.13
2022-12-15T03:28:49.511Z,18.80
2022-12-15T03:31:16.156Z,16.97
2022-12-15T03:33:42.799Z,15.80
2022-12-15T03:36:09.687Z,16.07
2022-12-15T03:38:36.335Z,14.83
2022-12-15T03:41:03.103Z,15.40
2022-12-15T03:43:32.478Z,18.10
2022-12-15T03:45:59.393Z,17.10
2022-12-15T03:48:26.046Z,22.80
2022-12-15T03:50:54.913Z,16.07
2022-12-15T03:53:21.549Z,16.07
2022-12-15T03:55:48.138Z,15.80
2022-12-15T03:58:14.725Z,18.50
2022-12-15T04:00:41.342Z,19.20
2022-12-15T04:03:11.225Z,18.67
2022-12-15T04:05:38.107Z,15.97
2022-12-15T04:08:05.757Z,16.10
2022-12-15T04:10:35.042Z,17.77
2022-12-15T04:13:06.177Z,15.70
2022-12-15T04:15:33.998Z,15.30
2022-12-15T04:18:05.468Z,16.60
2022-12-15T04:20:33.130Z,15.07
2022-12-15T04:23:00.295Z,16.20
2022-12-15T04:25:46.162Z,15.97
2022-12-15T04:28:35.282Z,16.10
2022-12-15T04:31:36.648Z,16.23
2022-12-15T04:34:25.011Z,17.17
2022-12-15T04:37:12.493Z,16.67
2022-12-15T04:40:02.464Z,15.10
2022-12-15T04:42:55.142Z,19.93
2022-12-15T04:45:45.101Z,18.17
2022-12-15T04:48:30.410Z,17.57
2022-12-15T04:51:15.862Z,15.63
2022-12-15T04:54:04.327Z,16.07
2022-12-15T04:56:50.759Z,15.00
2022-12-15T04:59:36.412Z,16.23
2022-12-15T05:02:24.927Z,17.57
2022-12-15T05:05:11.908Z,15.67
2022-12-15T05:08:07.539Z,17.20
2022-12-15T05:10:52.876Z,14.80
2022-12-15T05:13:38.272Z,14.40
2022-12-15T05:16:24.115Z,16.03
2022-12-15T05:19:09.378Z,13.63
2022-12-15T05:21:54.450Z,16.03
2022-12-15T05:24:39.982Z,16.90
2022-12-15T05:27:25.368Z,14.30
2022-12-15T05:30:10.819Z,18.03
2022-12-15T05:32:37.968Z,14.50
2022-12-15T05:35:04.891Z,15.60
2022-12-15T05:37:31.676Z,13.97
2022-12-15T05:39:58.250Z,16.00
2022-12-15T05:42:24.864Z,16.87
2022-12-15T05:44:51.507Z,16.47
2022-12-15T05:47:20.075Z,17.00
2022-12-15T05:49:52.451Z,15.17
2022-12-15T05:52:19.105Z,19.40
2022-12-15T05:54:45.692Z,16.57
2022-12-15T05:57:12.269Z,15.87
2022-12-15T05:59:38.917Z,18.00
2022-12-15T06:02:05.576Z,17.23
2022-12-15T06:04:32.332Z,17.83
2022-12-15T06:06:58.989Z,19.37
2022-12-15T06:09:25.624Z,17.23
2022-12-15T06:11:52.201Z,16.53
2022-12-15T06:14:19.780Z,18.20
2022-12-15T06:16:46.464Z,16.77
2022-12-15T06:19:17.951Z,19.43
2022-12-15T06:21:44.559Z,17.17
2022-12-15T06:24:11.183Z,16.37
2022-12-15T06:26:39.465Z,16.37
2022-12-15T06:29:08.535Z,18.20
2022-12-15T06:31:36.555Z,17.60
2022-12-15T06:34:13.009Z,17.73
2022-12-15T06:36:39.629Z,18.97
2022-12-15T06:39:09.122Z,22.70
2022-12-15T06:41:35.801Z,17.33
2022-12-15T06:44:03.318Z,17.73
2022-12-15T06:46:31.541Z,19.07
2022-12-15T06:48:58.887Z,17.63
2022-12-15T06:51:26.194Z,18.53
2022-12-15T06:53:56.210Z,17.60
2022-12-15T06:56:32.635Z,19.97
2022-12-15T06:59:00.652Z,22.10
2022-12-15T07:01:27.838Z,18.73
2022-12-15T07:03:55.619Z,24.43
2022-12-15T07:06:23.034Z,20.67
2022-12-15T07:08:56.430Z,21.13
2022-12-15T07:11:23.417Z,18.33
2022-12-15T07:13:53.993Z,16.83
2022-12-15T07:16:22.584Z,19.83
2022-12-15T07:18:49.725Z,15.20
2022-12-15T07:21:16.373Z,17.30
2022-12-15T07:23:54.616Z,16.90
2022-12-15T07:26:22.753Z,19.97
2022-12-15T07:28:49.550Z,19.77
2022-12-15T07:31:16.284Z,16.97
2022-12-15T07:33:43.416Z,18.90
2022-12-15T07:36:10.893Z,18.20
2022-12-15T07:38:37.903Z,16.93
2022-12-15T07:41:06.719Z,17.73
2022-12-15T07:43:34.248Z,19.07
2022-12-15T07:46:03.591Z,16.90
2022-12-15T07:48:30.357Z,20.37
2022-12-15T07:51:08.369Z,21.43
2022-12-15T07:53:38.151Z,20.90
2022-12-15T07:56:08.639Z,21.20
2022-12-15T07:58:36.896Z,19.23
2022-12-15T08:01:06.060Z,20.93
2022-12-15T08:03:33.868Z,20.33
2022-12-15T08:06:09.895Z,19.23
2022-12-15T08:08:36.832Z,19.23
2022-12-15T08:11:07.814Z,21.90
2022-12-15T08:16:22.115Z,27.50
2022-12-15T08:18:49.036Z,22.07
2022-12-15T08:21:15.789Z,19.70
2022-12-15T08:23:42.403Z,23.40
2022-12-15T08:26:11.889Z,18.03
2022-12-15T08:28:40.369Z,20.07
2022-12-15T08:31:12.399Z,26.80
2022-12-15T08:33:39.579Z,18.43
2022-12-15T08:36:10.247Z,22.10
2022-12-15T08:38:41.354Z,23.17
2022-12-15T08:41:16.099Z,24.17
2022-12-15T08:43:48.147Z,21.70
2022-12-15T08:46:20.864Z,24.50
2022-12-15T08:48:47.832Z,30.13
2022-12-15T08:51:14.775Z,25.17
2022-12-15T08:53:41.651Z,28.33
2022-12-15T08:56:12.371Z,32.37
2022-12-15T08:58:39.753Z,30.03
2022-12-15T09:01:09.294Z,43.20
2022-12-15T09:03:36.806Z,25.20
2022-12-15T09:06:05.710Z,25.97
2022-12-15T09:08:33.057Z,19.30
2022-12-15T09:11:01.911Z,28.37
2022-12-15T09:13:29.708Z,27.47
2022-12-15T09:16:13.475Z,26.93
2022-12-15T09:18:43.210Z,31.00
2022-12-15T09:21:11.180Z,26.67
2022-12-15T09:23:38.318Z,25.73
2022-12-15T09:26:07.840Z,25.97
2022-12-15T09:28:34.890Z,25.00
2022-12-15T09:31:07.095Z,24.97
2022-12-15T09:33:34.525Z,34.43
2022-12-15T09:36:01.838Z,29.27
2022-12-15T09:38:28.452Z,27.30
2022-12-15T09:40:55.113Z,24.63
2022-12-15T09:43:46.756Z,24.17
2022-12-15T09:46:38.056Z,35.07
2022-12-15T09:49:25.072Z,21.27
2022-12-15T09:52:10.365Z,17.63
2022-12-15T09:54:38.521Z,17.03
2022-12-15T09:57:18.314Z,15.83
2022-12-15T09:59:57.851Z,17.60
2022-12-15T10:02:43.318Z,15.83
2022-12-15T10:08:56.704Z,16.23
2022-12-15T10:11:50.646Z,17.77
2022-12-15T10:14:23.370Z,16.60
2022-12-15T10:17:14.253Z,16.27
2022-12-15T10:20:03.917Z,19.27
2022-12-15T10:22:34.280Z,14.90
2022-12-15T10:25:30.149Z,14.57
2022-12-15T10:28:17.474Z,14.07
2022-12-15T10:30:59.368Z,17.93
2022-12-15T10:33:29.043Z,16.97
2022-12-15T10:35:56.196Z,15.83
2022-12-15T10:38:42.294Z,19.43
2022-12-15T10:41:16.455Z,18.17
2022-12-15T10:43:46.797Z,17.93
2022-12-15T10:46:19.264Z,23.30
2022-12-15T10:48:51.427Z,17.50
2022-12-15T10:51:31.493Z,15.97
2022-12-15T10:54:09.567Z,15.50
2022-12-15T10:56:58.028Z,19.60
2022-12-15T10:59:25.792Z,21.40
2022-12-15T11:01:52.958Z,16.23
2022-12-15T11:04:27.896Z,36.20
2022-12-15T11:07:03.384Z,20.17
2022-12-15T11:09:39.787Z,15.57
2022-12-15T11:12:42.984Z,20.07
2022-12-15T11:15:39.162Z,17.67
2022-12-15T11:18:14.172Z,15.83
2022-12-15T11:20:48.560Z,15.47
2022-12-15T11:23:27.602Z,14.93
2022-12-15T11:26:07.233Z,16.87
2022-12-15T11:28:45.809Z,20.83
2022-12-15T11:31:24.988Z,16.90
2022-12-15T11:33:54.232Z,18.53
2022-12-15T11:36:53.765Z,13.17
2022-12-15T11:39:55.751Z,14.93
2022-12-15T11:42:34.214Z,15.07
2022-12-15T11:45:32.919Z,23.50
2022-12-15T11:48:18.527Z,14.90
2022-12-15T11:50:59.281Z,17.40
2022-12-15T11:53:44.620Z,16.73
2022-12-15T11:56:33.501Z,11.97
2022-12-15T11:59:33.901Z,11.47
2022-12-15T12:02:33.827Z,14.93
2022-12-15T12:05:26.736Z,9.80
2022-12-15T12:08:00.874Z,14.00
2022-12-15T12:10:36.496Z,14.00
2022-12-15T12:13:21.344Z,10.23
2022-12-15T12:16:09.708Z,10.33
2022-12-15T12:18:42.943Z,14.27
2022-12-15T12:21:15.289Z,13.57
2022-12-15T12:24:01.827Z,10.17
2022-12-15T12:26:38.677Z,12.37
2022-12-15T12:29:23.119Z,13.10
2022-12-15T12:32:15.890Z,11.67
2022-12-15T12:35:31.249Z,15.00
2022-12-15T12:38:04.726Z,11.73
2022-12-15T12:40:40.179Z,11.90
2022-12-15T12:43:13.536Z,16.17
2022-12-15T12:45:50.282Z,11.50
2022-12-15T12:48:43.735Z,16.30
2022-12-15T12:51:33.838Z,13.47
2022-12-15T12:54:01.340Z,12.70
2022-12-15T12:56:44.369Z,14.23
2022-12-15T12:59:30.484Z,14.70
2022-12-15T13:02:11.149Z,10.93
2022-12-15T13:04:40.533Z,12.27
2022-12-15T13:07:37.679Z,14.03
2022-12-15T13:10:19.907Z,11.40
2022-12-15T13:12:54.443Z,12.63
2022-12-15T13:15:27.685Z,12.03
2022-12-15T13:18:06.358Z,9.87
2022-12-15T13:20:35.735Z,9.53
2022-12-15T13:23:21.129Z,12.87
2022-12-15T13:25:56.963Z,11.57
2022-12-15T13:28:23.666Z,8.47
2022-12-15T13:31:16.562Z,8.50
2022-12-15T13:33:49.198Z,13.37
2022-12-15T13:36:37.907Z,11.23
2022-12-15T13:39:16.628Z,9.70
2022-12-15T13:42:07.898Z,9.97
2022-12-15T13:44:51.445Z,9.07
2022-12-15T13:47:25.543Z,8.70
2022-12-15T13:50:11.595Z,9.20
2022-12-15T13:53:18.990Z,11.30
2022-12-15T13:56:11.482Z,12.37
2022-12-15T13:58:44.366Z,10.50
2022-12-15T14:01:30.110Z,14.13
2022-12-15T14:04:05.113Z,13.63
2022-12-15T14:06:43.941Z,10.30
2022-12-15T14:09:14.317Z,11.90
2022-12-15T14:11:58.614Z,8.43
2022-12-15T14:14:33.283Z,14.37
2022-12-15T14:17:02.907Z,9.33
2022-12-15T14:19:51.182Z,10.43
2022-12-15T14:22:34.706Z,9.50
2022-12-15T14:25:16.176Z,13.03
2022-12-15T14:27:42.769Z,10.83
2022-12-15T14:30:29.561Z,9.97
2022-12-15T14:33:02.095Z,10.90
2022-12-15T14:35:40.064Z,14.53
2022-12-15T14:38:11.901Z,10.83
2022-12-15T14:40:40.048Z,12.60
2022-12-15T14:43:36.497Z,11.03
2022-12-15T14:46:12.699Z,10.63
2022-12-15T14:48:45.119Z,9.57
2022-12-15T14:51:13.852Z,12.23
2022-12-15T14:53:42.756Z,13.40
2022-12-15T14:56:31.165Z,13.63
2022-12-15T14:59:18.449Z,14.10
2022-12-15T15:02:01.953Z,9.60
2022-12-15T15:04:34.043Z,11.13
2022-12-15T15:07:03.323Z,12.00
2022-12-15T15:09:32.885Z,8.90
2022-12-15T15:12:04.776Z,12.27
2022-12-15T15:14:44.642Z,10.87
2022-12-15T15:17:14.623Z,10.97
2022-12-15T15:19:49.356Z,13.30
2022-12-15T15:22:39.837Z,13.07
2022-12-15T15:25:28.212Z,7.93
2022-12-15T15:28:15.433Z,10.37
2022-12-15T15:30:46.035Z,7.67
2022-12-15T15:33:15.174Z,10.60
2022-12-15T15:35:43.293Z,12.63
2022-12-15T15:38:35.038Z,8.70
2022-12-15T15:41:32.399Z,9.33
2022-12-15T15:44:01.473Z,14.53
2022-12-15T15:46:33.858Z,11.13
2022-12-15T15:49:07.963Z,9.53
2022-12-15T15:51:36.029Z,11.33
2022-12-15T15:54:10.880Z,10.13
2022-12-15T15:56:37.722Z,12.90
2022-12-15T15:59:16.219Z,10.37
2022-12-15T16:01:44.332Z,12.70
2022-12-15T16:04:11.503Z,11.67
2022-12-15T16:06:43.514Z,11.37
2022-12-15T16:09:14.965Z,13.20
2022-12-15T16:11:41.676Z,15.40
2022-12-15T16:14:14.243Z,9.97
2022-12-15T16:16:43.263Z,9.43
2022-12-15T16:19:12.105Z,16.47
2022-12-15T16:21:40.831Z,13.13
2022-12-15T16:24:16.428Z,12.07
2022-12-15T16:26:50.562Z,9.97
2022-12-15T16:29:19.741Z,11.03
2022-12-15T16:31:46.574Z,11.90
2022-12-15T16:34:13.790Z,11.20
2022-12-15T16:36:41.076Z,10.63
2022-12-15T16:39:33.627Z,9.90
2022-12-15T16:42:00.965Z,15.27
2022-12-15T16:44:29.281Z,15.47
2022-12-15T16:46:56.805Z,14.07
2022-12-15T16:53:48.794Z,18.97
2022-12-15T16:56:15.732Z,14.30
2022-12-15T16:58:42.559Z,14.20
2022-12-15T17:01:11.416Z,12.17
2022-12-15T17:03:38.290Z,13.33
2022-12-15T17:06:07.340Z,12.43
2022-12-15T17:08:54.085Z,14.47
2022-12-15T17:11:26.689Z,11.80
2022-12-15T17:13:57.210Z,13.37
2022-12-15T17:16:25.838Z,14.83
2022-12-15T17:18:52.731Z,14.40
2022-12-15T17:21:33.040Z,14.03
2022-12-15T17:24:05.292Z,15.83
2022-12-15T17:26:36.419Z,14.20
2022-12-15T17:29:25.144Z,16.10
2022-12-15T17:31:52.055Z,13.20
2022-12-15T17:34:33.051Z,21.57
2022-12-15T17:37:04.311Z,17.33
2022-12-15T17:39:32.521Z,14.93
2022-12-15T17:42:01.144Z,12.43
2022-12-15T17:44:34.755Z,14.37
2022-12-15T17:47:04.555Z,12.30
2022-12-15T17:49:35.646Z,16.07
2022-12-15T17:52:07.800Z,14.33
2022-12-15T17:54:35.484Z,14.53
2022-12-15T17:57:02.152Z,17.23
2022-12-15T17:59:28.753Z,13.80
2022-12-15T18:01:57.069Z,12.57
2022-12-15T18:04:24.037Z,15.17
2022-12-15T18:06:59.562Z,17.10
2022-12-15T18:09:28.596Z,14.00
2022-12-15T18:11:55.348Z,17.03
2022-12-15T18:14:22.863Z,15.03
2022-12-15T18:16:49.801Z,13.97
2022-12-15T18:19:16.431Z,14.00
2022-12-15T18:21:43.111Z,20.17
2022-12-15T18:24:13.144Z,14.73
2022-12-15T18:26:39.751Z,14.07
2022-12-15T18:29:17.542Z,15.70
2022-12-15T18:31:46.597Z,19.33
2022-12-15T18:34:28.612Z,14.73
2022-12-15T18:37:02.074Z,15.80
2022-12-15T18:39:28.692Z,15.47
2022-12-15T18:41:55.394Z,14.20
2022-12-15T18:44:27.536Z,17.43
2022-12-15T18:46:55.325Z,16.63
2022-12-15T18:49:22.957Z,15.10
2022-12-15T18:51:50.249Z,17.50
2022-12-15T18:54:22.303Z,18.17
2022-12-15T18:56:49.528Z,16.37
2022-12-15T18:59:17.736Z,17.97
2022-12-15T19:01:46.376Z,17.17
2022-12-15T19:04:13.979Z,19.77
2022-12-15T19:06:41.817Z,19.13
2022-12-15T19:09:15.790Z,14.33
2022-12-15T19:12:04.659Z,15.27
2022-12-15T19:14:40.081Z,15.93
2022-12-15T19:17:42.062Z,18.50
2022-12-15T19:20:38.621Z,18.83
2022-12-15T19:23:06.580Z,16.27
2022-12-15T19:25:36.802Z,16.10
2022-12-15T19:28:03.926Z,18.53
2022-12-15T19:30:37.042Z,19.17
2022-12-15T19:33:08.210Z,16.03
2022-12-15T19:35:35.648Z,22.50
2022-12-15T19:38:03.609Z,15.60
2022-12-15T19:40:32.613Z,16.30
2022-12-15T19:43:00.313Z,16.60
2022-12-15T19:45:29.539Z,15.07
2022-12-15T19:47:57.031Z,18.40
2022-12-15T19:50:26.176Z,17.57
2022-12-15T19:52:56.492Z,20.17
2022-12-15T19:55:29.943Z,19.20
2022-12-15T19:57:56.664Z,19.03
2022-12-15T20:00:24.701Z,18.90
2022-12-15T20:02:54.513Z,19.63
2022-12-15T20:05:23.407Z,18.93
2022-12-15T20:07:52.167Z,20.67
2022-12-15T20:10:27.522Z,16.73
2022-12-15T20:12:58.954Z,16.87
2022-12-15T20:15:28.452Z,17.37
2022-12-15T20:17:56.386Z,16.30
2022-12-15T20:20:25.034Z,16.73
2022-12-15T20:22:54.596Z,16.73
2022-12-15T20:25:26.371Z,18.70
2022-12-15T20:27:53.031Z,16.77
2022-12-15T20:30:26.754Z,19.07
2022-12-15T20:32:53.622Z,18.43
2022-12-15T20:35:21.856Z,19.23
2022-12-15T20:37:49.644Z,19.03
2022-12-15T20:40:19.470Z,16.43
2022-12-15T20:42:46.449Z,19.10
2022-12-15T20:45:15.019Z,18.50
2022-12-15T20:47:43.731Z,17.23
2022-12-15T20:50:38.104Z,18.20
2022-12-15T20:53:13.702Z,20.40
2022-12-15T20:55:40.322Z,18.37
2022-12-15T20:58:06.962Z,17.37
2022-12-15T21:00:33.795Z,18.23
2022-12-15T21:03:00.738Z,17.87
2022-12-15T21:05:27.611Z,19.90
2022-12-15T21:07:54.299Z,17.87
2022-12-15T21:10:20.963Z,17.03
2022-12-15T21:12:49.289Z,17.13
2022-12-15T21:15:23.405Z,18.57
2022-12-15T21:18:08.871Z,18.23
2022-12-15T21:20:41.356Z,18.70
2022-12-15T21:23:24.306Z,19.27
2022-12-15T21:25:51.732Z,21.13
2022-12-15T21:28:18.607Z,18.70
2022-12-15T21:30:45.623Z,17.37
2022-12-15T21:33:12.530Z,18.47
2022-12-15T21:35:41.245Z,20.47
2022-12-15T21:38:23.571Z,18.10
2022-12-15T21:40:55.973Z,16.77
2022-12-15T21:43:28.670Z,17.77
2022-12-15T21:45:55.526Z,22.03
2022-12-15T21:48:40.732Z,18.60
2022-12-15T21:51:15.303Z,16.00
2022-12-15T21:53:43.146Z,17.77
2022-12-15T21:56:18.689Z,16.93
2022-12-15T21:58:48.837Z,16.30
2022-12-15T22:01:19.544Z,18.93
2022-12-15T22:03:53.167Z,19.23
2022-12-15T22:06:24.438Z,18.67
2022-12-15T22:08:53.383Z,18.30
2022-12-15T22:11:26.354Z,19.60
2022-12-15T22:13:55.189Z,21.50
2022-12-15T22:16:22.828Z,21.30
2022-12-15T22:18:53.096Z,17.10
2022-12-15T22:21:22.575Z,20.73
2022-12-15T22:23:50.677Z,20.40
2022-12-15T22:26:30.894Z,18.37
2022-12-15T22:29:01.225Z,19.87
2022-12-15T22:31:28.947Z,19.77
2022-12-15T22:33:55.618Z,19.03
2022-12-15T22:36:22.235Z,19.77
2022-12-15T22:38:48.856Z,20.67
2022-12-15T22:41:23.332Z,19.40
2022-12-15T22:43:56.228Z,17.93
2022-12-15T22:46:24.671Z,18.53
2022-12-15T22:48:52.735Z,15.83
2022-12-15T22:51:21.776Z,16.90
2022-12-15T22:53:48.440Z,18.87
2022-12-15T22:56:28.228Z,20.17
2022-12-15T22:59:00.668Z,19.73
2022-12-15T23:01:27.974Z,21.30
2022-12-15T23:03:55.473Z,21.23
2022-12-15T23:06:23.456Z,18.37
2022-12-15T23:08:55.654Z,18.67
2022-12-15T23:11:39.250Z,19.17
2022-12-15T23:14:17.125Z,16.43
2022-12-15T23:16:45.273Z,19.70
2022-12-15T23:19:23.839Z,20.27
2022-12-15T23:21:51.048Z,17.30
2022-12-15T23:24:18.557Z,19.73
2022-12-15T23:26:45.207Z,18.57
2022-12-15T23:29:11.818Z,19.17
2022-12-15T23:31:38.516Z,21.80
2022-12-15T23:34:05.322Z,19.73
2022-12-15T23:36:31.958Z,16.37
2022-12-15T23:38:58.658Z,17.60
2022-12-15T23:41:25.262Z,16.80
2022-12-15T23:43:52.004Z,18.47
2022-12-15T23:46:18.818Z,20.93
2022-12-15T23:48:45.645Z,17.97
2022-12-15T23:51:20.105Z,18.83
2022-12-15T23:53:47.905Z,22.40
2022-12-15T23:56:20.223Z,19.73
2022-12-15T23:58:49.096Z,22.50
